Accueil
METAR-TAF:

METAR-TAF

Aéroports :

Saglek Bay, Terre-Neuve-et-Labrador, Canada

latitude: 58-20N, longitude: 062-35W, altitude: 483 m

Observation

Le bulletin a été fait il y a 29 minutes, à 19:00 UTC
Vent 31 kt de nord-ouest avec des rafales jusqu'à 38 kt
Température -11°C
Humidité 66%
Pression 990 hPa
Quelques nuages à une hauteur de 2600 ft
Quelques nuages à une hauteur de 5500 ft
Nuages épars à une hauteur de 10000 ft

METAR: CWZZ 231900Z AUTO 31031G38KT ////SM FEW026 FEW055 SCT100 M11/M16 A2923

Heure: 15:29 (19:29 UTC)


TAF: absent

Observations et prévisions météorologiques de plus de 4000 aéroports (messages METAR et TAF).

Les stations disponibles sont représentées par des disques jaunes et rouges sur la carte.

Passer la souris dessus pour voir le nom de la station.

Cliquer dessus pour voir les observations et prévisions météorologiques.

Pour changer de carte: cliquez sur les boutons verts avec une croix noire pour zoomer, sur le bouton vert avec un tiret pour effectuer un zoom arrière, ou sur les flèches vertes pour les cartes adjacentes.


METAR-TAF: